createdAt,value
2023-01-29T00:02:10.803Z,-2.71
2023-01-29T00:05:27.392Z,-2.69
2023-01-29T00:08:33.317Z,-2.68
2023-01-29T00:11:35.269Z,-2.67
2023-01-29T00:14:36.854Z,-2.76
2023-01-29T00:17:38.369Z,-2.73
2023-01-29T00:20:43.089Z,-2.73
2023-01-29T00:23:46.322Z,-2.72
2023-01-29T00:26:50.452Z,-2.72
2023-01-29T00:30:08.984Z,-2.72
2023-01-29T00:33:11.965Z,-2.69
2023-01-29T00:36:15.112Z,-2.66
2023-01-29T00:39:29.360Z,-2.65
2023-01-29T00:42:59.103Z,-2.62
2023-01-29T00:46:00.673Z,-2.60
2023-01-29T00:49:04.526Z,-2.57
2023-01-29T00:52:24.402Z,-2.56
2023-01-29T00:55:27.520Z,-2.55
2023-01-29T00:58:34.338Z,-2.55
2023-01-29T01:01:54.891Z,-2.54
2023-01-29T01:04:56.480Z,-2.52
2023-01-29T01:07:58.632Z,-2.52
2023-01-29T01:11:02.707Z,-2.51
2023-01-29T01:14:04.386Z,-2.50
2023-01-29T01:17:06.277Z,-2.49
2023-01-29T01:20:11.105Z,-2.42
2023-01-29T01:23:13.104Z,-2.45
2023-01-29T01:26:16.029Z,-2.45
2023-01-29T01:29:17.620Z,-2.41
2023-01-29T01:32:19.380Z,-2.39
2023-01-29T01:35:21.088Z,-2.41
2023-01-29T01:38:22.612Z,-2.39
2023-01-29T01:41:25.722Z,-2.38
2023-01-29T01:44:46.179Z,-2.37
2023-01-29T01:47:49.574Z,-2.36
2023-01-29T01:50:53.749Z,-2.31
2023-01-29T01:53:58.009Z,-2.29
2023-01-29T01:57:09.283Z,-2.27
2023-01-29T02:00:13.028Z,-2.27
2023-01-29T02:03:38.770Z,-2.24
2023-01-29T02:06:59.485Z,-2.24
2023-01-29T02:10:06.277Z,-2.21
2023-01-29T02:13:09.477Z,-2.20
2023-01-29T02:16:11.772Z,-2.24
2023-01-29T02:19:17.104Z,-2.22
2023-01-29T02:22:29.236Z,-2.22
2023-01-29T02:25:42.419Z,-2.20
2023-01-29T02:28:49.107Z,-2.21
2023-01-29T02:32:01.851Z,-2.24
2023-01-29T02:35:28.911Z,-2.27
2023-01-29T02:38:36.034Z,-2.28
2023-01-29T02:41:42.542Z,-2.28
2023-01-29T02:44:49.035Z,-2.31
2023-01-29T02:47:55.521Z,-2.31
2023-01-29T02:50:59.573Z,-2.30
2023-01-29T02:54:04.185Z,-2.34
2023-01-29T02:57:09.990Z,-2.33
2023-01-29T03:00:16.271Z,-2.31
2023-01-29T03:03:19.405Z,-2.31
2023-01-29T03:06:23.184Z,-2.31
2023-01-29T03:09:28.295Z,-2.31
2023-01-29T03:12:34.305Z,-2.29
2023-01-29T03:15:46.924Z,-2.28
2023-01-29T03:19:07.252Z,-2.34
2023-01-29T03:22:11.180Z,-2.36
2023-01-29T03:25:33.164Z,-2.35
2023-01-29T03:28:53.591Z,-2.38
2023-01-29T03:32:05.579Z,-2.39
2023-01-29T03:35:09.914Z,-2.39
2023-01-29T03:38:12.131Z,-2.39
2023-01-29T03:41:17.605Z,-2.40
2023-01-29T03:44:21.893Z,-2.40
2023-01-29T03:47:27.411Z,-2.40
2023-01-29T03:50:32.763Z,-2.39
2023-01-29T03:53:44.069Z,-2.40
2023-01-29T03:56:55.231Z,-2.38
2023-01-29T04:00:02.188Z,-2.36
2023-01-29T04:03:33.214Z,-2.36
2023-01-29T04:06:37.212Z,-2.37
2023-01-29T04:09:45.898Z,-2.39
2023-01-29T04:12:50.402Z,-2.37
2023-01-29T04:15:55.855Z,-2.36
2023-01-29T04:19:15.619Z,-2.34
2023-01-29T04:22:20.232Z,-2.29
2023-01-29T04:25:27.017Z,-2.27
2023-01-29T04:28:39.358Z,-2.22
2023-01-29T04:31:45.754Z,-2.17
2023-01-29T04:34:56.771Z,-2.13
2023-01-29T04:38:06.313Z,-2.13
2023-01-29T04:41:11.608Z,-2.11
2023-01-29T04:44:18.642Z,-2.10
2023-01-29T04:47:24.754Z,-2.09
2023-01-29T04:50:29.444Z,-2.07
2023-01-29T04:53:37.514Z,-2.06
2023-01-29T04:56:42.520Z,-2.05
2023-01-29T04:59:47.083Z,-2.02
2023-01-29T05:02:49.386Z,-2.03
2023-01-29T05:05:54.136Z,-2.00
2023-01-29T05:08:57.193Z,-2.00
2023-01-29T05:11:59.888Z,-2.07
2023-01-29T05:15:03.109Z,-2.08
2023-01-29T05:18:08.727Z,-2.03
2023-01-29T05:21:11.863Z,-2.01
2023-01-29T05:24:15.542Z,-1.99
2023-01-29T05:27:36.807Z,-2.01
2023-01-29T05:30:39.270Z,-2.00
2023-01-29T05:33:41.233Z,-2.03
2023-01-29T05:36:44.377Z,-2.03
2023-01-29T05:39:45.925Z,-2.05
2023-01-29T05:42:47.602Z,-2.06
2023-01-29T05:45:53.693Z,-2.04
2023-01-29T05:48:55.283Z,-1.99
2023-01-29T05:51:58.286Z,-1.94
2023-01-29T05:54:59.832Z,-1.94
2023-01-29T05:58:01.465Z,-1.93
2023-01-29T06:01:10.018Z,-1.92
2023-01-29T06:04:11.646Z,-1.94
2023-01-29T06:07:14.564Z,-1.92
2023-01-29T06:10:17.907Z,-1.92
2023-01-29T06:13:19.845Z,-1.92
2023-01-29T06:16:21.421Z,-1.93
2023-01-29T06:19:23.185Z,-1.92
2023-01-29T06:22:26.366Z,-1.92
2023-01-29T06:25:28.112Z,-1.95
2023-01-29T06:28:29.740Z,-1.94
2023-01-29T06:31:38.921Z,-1.93
2023-01-29T06:34:41.070Z,-1.96
2023-01-29T06:37:44.992Z,-1.96
2023-01-29T06:40:46.526Z,-1.98
2023-01-29T06:43:48.243Z,-1.99
2023-01-29T06:46:52.155Z,-1.98
2023-01-29T06:49:53.938Z,-1.98
2023-01-29T06:52:59.358Z,-1.98
2023-01-29T06:56:00.842Z,-2.00
2023-01-29T06:59:02.971Z,-2.02
2023-01-29T07:02:04.593Z,-2.07
2023-01-29T07:05:06.476Z,-2.10
2023-01-29T07:08:09.855Z,-2.07
2023-01-29T07:11:11.846Z,-2.08
2023-01-29T07:14:13.589Z,-2.11
2023-01-29T07:17:15.283Z,-2.10
2023-01-29T07:20:19.908Z,-2.13
2023-01-29T07:23:23.039Z,-2.11
2023-01-29T07:26:24.857Z,-2.12
2023-01-29T07:29:26.713Z,-2.13
2023-01-29T07:32:28.925Z,-2.13
2023-01-29T07:35:30.766Z,-2.13
2023-01-29T07:38:33.921Z,-2.14
2023-01-29T07:41:39.240Z,-2.20
2023-01-29T07:44:50.334Z,-2.20
2023-01-29T07:47:52.425Z,-2.19
2023-01-29T07:50:55.350Z,-2.19
2023-01-29T07:53:58.560Z,-2.17
2023-01-29T07:57:00.200Z,-2.18
2023-01-29T08:00:01.924Z,-2.20
2023-01-29T08:03:16.252Z,-2.20
2023-01-29T08:06:18.372Z,-2.22
2023-01-29T08:09:21.441Z,-2.19
2023-01-29T08:12:23.300Z,-2.17
2023-01-29T08:15:25.457Z,-2.17
2023-01-29T08:18:27.116Z,-2.15
2023-01-29T08:21:29.193Z,-2.17
2023-01-29T08:24:47.476Z,-2.17
2023-01-29T08:27:53.997Z,-2.15
2023-01-29T08:30:55.604Z,-2.14
2023-01-29T08:33:59.040Z,-2.13
2023-01-29T08:37:00.790Z,-2.11
2023-01-29T08:40:04.196Z,-2.11
2023-01-29T08:43:08.682Z,-2.08
2023-01-29T08:46:10.789Z,-1.98
2023-01-29T08:49:12.464Z,-2.02
2023-01-29T08:52:14.189Z,-1.99
2023-01-29T08:55:17.720Z,-1.95
2023-01-29T08:58:20.246Z,-1.93
2023-01-29T09:01:22.027Z,-1.93
2023-01-29T09:04:23.560Z,-1.89
2023-01-29T09:07:25.421Z,-1.85
2023-01-29T09:10:28.431Z,-1.84
2023-01-29T09:13:30.285Z,-1.82
2023-01-29T09:16:31.936Z,-1.80
2023-01-29T09:19:33.448Z,-1.77
2023-01-29T09:22:35.672Z,-1.70
2023-01-29T09:25:39.343Z,-1.64
2023-01-29T09:28:41.147Z,-1.55
2023-01-29T09:31:43.096Z,-1.47
2023-01-29T09:34:44.643Z,-1.41
2023-01-29T09:37:47.518Z,-1.39
2023-01-29T09:40:55.607Z,-1.39
2023-01-29T09:43:59.746Z,-1.38
2023-01-29T09:47:04.382Z,-1.35
2023-01-29T09:50:09.037Z,-1.33
2023-01-29T09:53:16.659Z,-1.30
2023-01-29T09:56:20.840Z,-1.27
2023-01-29T09:59:23.882Z,-1.27
2023-01-29T10:02:41.431Z,-1.26
2023-01-29T10:05:50.988Z,-1.19
2023-01-29T10:09:10.764Z,-1.17
2023-01-29T10:12:20.093Z,-1.11
2023-01-29T10:15:28.712Z,-1.07
2023-01-29T10:18:40.994Z,-1.02
2023-01-29T10:21:52.683Z,-0.98
2023-01-29T10:24:57.827Z,-0.96
2023-01-29T10:28:01.754Z,-0.96
2023-01-29T10:31:06.971Z,-0.93
2023-01-29T10:34:12.730Z,-0.93
2023-01-29T10:37:17.018Z,-0.98
2023-01-29T10:40:20.652Z,-0.97
2023-01-29T10:43:30.455Z,-0.94
2023-01-29T10:46:37.976Z,-0.91
2023-01-29T10:49:50.314Z,-0.92
2023-01-29T10:53:11.357Z,-0.85
2023-01-29T10:56:23.523Z,-0.87
2023-01-29T10:59:37.205Z,-0.84
2023-01-29T11:02:43.457Z,-0.77
2023-01-29T11:05:51.533Z,-0.78
2023-01-29T11:08:56.351Z,-0.74
2023-01-29T11:12:00.915Z,-0.75
2023-01-29T11:15:09.089Z,-0.72
2023-01-29T11:18:14.247Z,-0.65
2023-01-29T11:21:16.775Z,-0.57
2023-01-29T11:24:19.099Z,-0.56
2023-01-29T11:27:24.019Z,-0.53
2023-01-29T11:30:29.593Z,-0.45
2023-01-29T11:33:31.884Z,-0.46
2023-01-29T11:36:36.502Z,-0.44
2023-01-29T11:39:43.866Z,-0.42
2023-01-29T11:42:46.169Z,-0.36
2023-01-29T11:45:51.768Z,-0.36
2023-01-29T11:48:59.374Z,-0.34
2023-01-29T11:52:13.222Z,-0.34
2023-01-29T11:55:19.273Z,-0.36
2023-01-29T11:58:23.262Z,-0.34
2023-01-29T12:01:31.122Z,-0.27
2023-01-29T12:04:33.289Z,-0.28
2023-01-29T12:11:11.292Z,-0.30
2023-01-29T12:14:24.193Z,-0.27
2023-01-29T12:17:30.729Z,-0.26
2023-01-29T12:20:35.995Z,-0.22
2023-01-29T12:23:41.664Z,-0.21
2023-01-29T12:26:46.970Z,-0.17
2023-01-29T12:29:53.024Z,-0.22
2023-01-29T12:32:59.687Z,-0.21
2023-01-29T12:36:05.547Z,-0.22
2023-01-29T12:39:10.464Z,-0.19
2023-01-29T12:42:15.392Z,-0.22
2023-01-29T12:45:18.700Z,-0.18
2023-01-29T12:48:25.047Z,-0.17
2023-01-29T12:51:31.328Z,-0.16
2023-01-29T12:54:35.445Z,-0.13
2023-01-29T12:57:40.312Z,-0.14
2023-01-29T13:00:44.255Z,-0.14
2023-01-29T13:03:51.100Z,-0.13
2023-01-29T13:06:56.604Z,-0.09
2023-01-29T13:10:04.425Z,-0.13
2023-01-29T13:13:12.858Z,-0.11
2023-01-29T13:16:15.898Z,-0.13
2023-01-29T13:19:24.083Z,-0.15
2023-01-29T13:22:27.255Z,-0.16
2023-01-29T13:25:29.014Z,-0.14
2023-01-29T13:28:30.627Z,-0.11
2023-01-29T13:31:34.159Z,-0.08
2023-01-29T13:34:43.526Z,-0.10
2023-01-29T13:37:48.459Z,-0.11
2023-01-29T13:40:51.011Z,-0.11
2023-01-29T13:43:52.704Z,-0.13
2023-01-29T13:46:57.044Z,-0.13
2023-01-29T13:50:03.301Z,-0.16
2023-01-29T13:53:06.727Z,-0.19
2023-01-29T13:56:27.517Z,-0.18
2023-01-29T13:59:46.455Z,-0.12
2023-01-29T14:02:48.259Z,-0.14
2023-01-29T14:05:59.873Z,-0.12
2023-01-29T14:09:01.788Z,-0.12
2023-01-29T14:12:04.158Z,-0.12
2023-01-29T14:15:21.757Z,-0.14
2023-01-29T14:18:26.251Z,-0.18
2023-01-29T14:21:32.190Z,-0.18
2023-01-29T14:24:34.122Z,-0.20
2023-01-29T14:27:37.659Z,-0.22
2023-01-29T14:30:41.120Z,-0.25
2023-01-29T14:33:44.434Z,-0.25
2023-01-29T14:36:50.820Z,-0.28
2023-01-29T14:39:53.334Z,-0.27
2023-01-29T14:42:57.510Z,-0.26
2023-01-29T14:46:33.148Z,-0.26
2023-01-29T14:49:54.441Z,-0.24
2023-01-29T14:53:02.039Z,-0.26
2023-01-29T14:56:05.389Z,-0.26
2023-01-29T14:59:16.408Z,-0.25
2023-01-29T15:02:20.464Z,-0.28
2023-01-29T15:05:25.014Z,-0.30
2023-01-29T15:08:32.908Z,-0.32
2023-01-29T15:11:40.693Z,-0.31
2023-01-29T15:14:47.849Z,-0.32
2023-01-29T15:17:55.228Z,-0.35
2023-01-29T15:21:12.029Z,-0.35
2023-01-29T15:24:15.744Z,-0.35
2023-01-29T15:27:18.764Z,-0.37
2023-01-29T15:30:23.288Z,-0.36
2023-01-29T15:33:25.260Z,-0.41
2023-01-29T15:36:28.703Z,-0.42
2023-01-29T15:39:32.040Z,-0.44
2023-01-29T15:42:44.649Z,-0.44
2023-01-29T15:45:47.391Z,-0.46
2023-01-29T15:48:50.304Z,-0.46
2023-01-29T15:51:56.947Z,-0.50
2023-01-29T15:55:03.601Z,-0.51
2023-01-29T15:58:06.699Z,-0.52
2023-01-29T16:01:09.080Z,-0.51
2023-01-29T16:04:13.008Z,-0.53
2023-01-29T16:07:14.943Z,-0.55
2023-01-29T16:10:20.075Z,-0.60
2023-01-29T16:13:22.882Z,-0.61
2023-01-29T16:16:26.020Z,-0.61
2023-01-29T16:19:28.666Z,-0.61
2023-01-29T16:22:32.695Z,-0.62
2023-01-29T16:25:38.963Z,-0.64
2023-01-29T16:28:41.032Z,-0.63
2023-01-29T16:31:43.963Z,-0.64
2023-01-29T16:34:52.160Z,-0.62
2023-01-29T16:37:57.469Z,-0.62
2023-01-29T16:41:13.445Z,-0.65
2023-01-29T16:44:30.273Z,-0.65
2023-01-29T16:47:33.691Z,-0.65
2023-01-29T16:50:43.373Z,-0.65
2023-01-29T16:53:53.121Z,-0.66
2023-01-29T16:56:59.145Z,-0.65
2023-01-29T17:00:03.528Z,-0.66
2023-01-29T17:03:07.725Z,-0.66
2023-01-29T17:06:09.827Z,-0.63
2023-01-29T17:09:20.520Z,-0.64
2023-01-29T17:12:25.570Z,-0.62
2023-01-29T17:15:29.706Z,-0.61
2023-01-29T17:18:31.933Z,-0.61
2023-01-29T17:21:33.705Z,-0.61
2023-01-29T17:24:35.365Z,-0.59
2023-01-29T17:27:40.175Z,-0.57
2023-01-29T17:30:44.699Z,-0.57
2023-01-29T17:33:47.396Z,-0.56
2023-01-29T17:36:51.033Z,-0.54
2023-01-29T17:39:53.075Z,-0.51
2023-01-29T17:42:56.074Z,-0.51
2023-01-29T17:45:58.021Z,-0.50
2023-01-29T17:48:59.749Z,-0.50
2023-01-29T17:52:01.829Z,-0.47
2023-01-29T17:55:04.105Z,-0.47
2023-01-29T17:58:12.961Z,-0.46
2023-01-29T18:01:14.939Z,-0.46
2023-01-29T18:04:17.235Z,-0.43
2023-01-29T18:07:19.130Z,-0.43
2023-01-29T18:10:21.681Z,-0.43
2023-01-29T18:13:24.764Z,-0.42
2023-01-29T18:16:26.877Z,-0.43
2023-01-29T18:19:31.190Z,-0.44
2023-01-29T18:22:32.894Z,-0.44
2023-01-29T18:25:34.817Z,-0.43
2023-01-29T18:28:38.303Z,-0.47
2023-01-29T18:31:39.909Z,-0.46
2023-01-29T18:34:41.607Z,-0.53
2023-01-29T18:37:43.441Z,-0.53
2023-01-29T18:40:45.127Z,-0.53
2023-01-29T18:43:48.052Z,-0.54
2023-01-29T18:46:49.955Z,-0.55
2023-01-29T18:49:52.172Z,-0.58
2023-01-29T18:52:54.643Z,-0.61
2023-01-29T18:55:56.817Z,-0.60
2023-01-29T18:59:00.202Z,-0.62
2023-01-29T19:02:02.877Z,-0.61
2023-01-29T19:05:05.088Z,-0.60
2023-01-29T19:08:07.218Z,-0.59
2023-01-29T19:11:09.121Z,-0.59
2023-01-29T19:14:12.212Z,-0.60
2023-01-29T19:17:13.935Z,-0.61
2023-01-29T19:20:16.268Z,-0.60
2023-01-29T19:23:17.991Z,-0.60
2023-01-29T19:26:19.702Z,-0.61
2023-01-29T19:29:23.338Z,-0.56
2023-01-29T19:32:25.981Z,-0.55
2023-01-29T19:35:28.576Z,-0.53
2023-01-29T19:38:33.461Z,-0.53
2023-01-29T19:41:35.395Z,-0.51
2023-01-29T19:44:39.898Z,-0.48
2023-01-29T19:47:43.411Z,-0.47
2023-01-29T19:50:50.844Z,-0.44
2023-01-29T19:53:52.694Z,-0.44
2023-01-29T19:56:54.631Z,-0.43
2023-01-29T19:59:57.897Z,-0.39
2023-01-29T20:02:59.791Z,-0.36
2023-01-29T20:06:02.880Z,-0.34
2023-01-29T20:09:05.571Z,-0.32
2023-01-29T20:12:07.220Z,-0.27
2023-01-29T20:15:11.220Z,-0.24
2023-01-29T20:18:12.877Z,-0.23
2023-01-29T20:21:15.324Z,-0.24
2023-01-29T20:24:17.290Z,-0.23
2023-01-29T20:27:19.016Z,-0.19
2023-01-29T20:30:22.157Z,-0.15
2023-01-29T20:33:24.403Z,-0.12
2023-01-29T20:36:26.116Z,-0.09
2023-01-29T20:39:27.896Z,-0.07
2023-01-29T20:42:29.753Z,-0.06
2023-01-29T20:45:33.423Z,0.01
2023-01-29T20:48:35.188Z,0.02
2023-01-29T20:51:36.977Z,0.01
2023-01-29T20:54:38.617Z,0.01
2023-01-29T20:57:40.494Z,0.03
2023-01-29T21:00:44.054Z,0.06
2023-01-29T21:03:46.491Z,0.09
2023-01-29T21:06:48.362Z,0.12
2023-01-29T21:09:50.082Z,0.13
2023-01-29T21:12:51.721Z,0.15
2023-01-29T21:15:55.059Z,0.15
2023-01-29T21:18:56.790Z,0.20
2023-01-29T21:21:58.458Z,0.21
2023-01-29T21:25:00.021Z,0.24
2023-01-29T21:28:04.407Z,0.23
2023-01-29T21:31:10.035Z,0.24
2023-01-29T21:34:12.017Z,0.26
2023-01-29T21:37:14.136Z,0.27
2023-01-29T21:40:16.360Z,0.29
2023-01-29T21:43:18.291Z,0.33
2023-01-29T21:46:21.478Z,0.36
2023-01-29T21:49:23.367Z,0.43
2023-01-29T21:52:25.132Z,0.44
2023-01-29T21:55:26.879Z,0.41
2023-01-29T21:58:28.752Z,0.43
2023-01-29T22:01:37.951Z,0.48
2023-01-29T22:04:40.383Z,0.49
2023-01-29T22:07:42.181Z,0.51
2023-01-29T22:10:43.877Z,0.51
2023-01-29T22:13:45.608Z,0.52
2023-01-29T22:16:48.652Z,0.54
2023-01-29T22:19:50.527Z,0.54
2023-01-29T22:22:52.279Z,0.57
2023-01-29T22:25:53.993Z,0.56
2023-01-29T22:28:55.666Z,0.58
2023-01-29T22:31:58.617Z,0.61
2023-01-29T22:35:00.420Z,0.62
2023-01-29T22:38:02.369Z,0.62
2023-01-29T22:41:04.564Z,0.60
2023-01-29T22:44:06.353Z,0.62
2023-01-29T22:47:09.564Z,0.60
2023-01-29T22:50:12.098Z,0.61
2023-01-29T22:53:13.944Z,0.61
2023-01-29T22:56:15.711Z,0.63
2023-01-29T22:59:17.329Z,0.66
2023-01-29T23:02:22.498Z,0.68
2023-01-29T23:05:24.281Z,0.71
2023-01-29T23:08:25.854Z,0.71
2023-01-29T23:11:27.569Z,0.71
2023-01-29T23:14:29.259Z,0.71
2023-01-29T23:17:32.309Z,0.71
2023-01-29T23:20:34.132Z,0.72
2023-01-29T23:23:36.864Z,0.69
2023-01-29T23:26:59.213Z,0.71
2023-01-29T23:30:00.810Z,0.68
2023-01-29T23:33:04.045Z,0.67
2023-01-29T23:36:06.286Z,0.66
2023-01-29T23:39:08.118Z,0.64
2023-01-29T23:42:09.731Z,0.63
2023-01-29T23:45:15.056Z,0.65
2023-01-29T23:48:18.091Z,0.66
2023-01-29T23:51:19.820Z,0.67
2023-01-29T23:54:21.478Z,0.72
2023-01-29T23:57:23.370Z,0.74
